createdAt,value
2022-12-03T00:03:35.763Z,97562.47
2022-12-03T00:08:37.860Z,97560.47
2022-12-03T00:13:41.174Z,97558.63
2022-12-03T00:18:43.112Z,97553.19
2022-12-03T00:23:45.094Z,97556.25
2022-12-03T00:28:48.397Z,97563.28
2022-12-03T00:33:50.547Z,97553.19
2022-12-03T00:38:52.522Z,97551.28
2022-12-03T00:43:57.642Z,97556.69
2022-12-03T00:48:59.676Z,97552.03
2022-12-03T00:54:01.652Z,97557.06
2022-12-03T00:59:04.971Z,97559.06
2022-12-03T01:04:06.874Z,97557.56
2022-12-03T01:09:08.828Z,97542.81
2022-12-03T01:14:13.927Z,97547.41
2022-12-03T01:19:17.121Z,97552.78
2022-12-03T01:24:19.671Z,97550.53
2022-12-03T01:29:23.164Z,97536.16
2022-12-03T01:34:25.092Z,97537.28
2022-12-03T01:39:27.164Z,97539.63
2022-12-03T01:44:32.266Z,97545.41
2022-12-03T01:49:40.096Z,97547.88
2022-12-03T01:54:46.454Z,97552.13
2022-12-03T01:59:50.729Z,97547.78
2022-12-03T02:04:55.925Z,97555.38
2022-12-03T02:09:59.812Z,97545.47
2022-12-03T02:15:04.566Z,97548.56
2022-12-03T02:20:08.793Z,97544.69
2022-12-03T02:25:16.218Z,97546.19
2022-12-03T02:30:20.429Z,97546.19
2022-12-03T02:35:24.730Z,97552.78
2022-12-03T02:40:29.741Z,97553.56
2022-12-03T02:45:36.211Z,97549.28
2022-12-03T02:50:41.442Z,97556.88
2022-12-03T02:55:45.308Z,97559.19
2022-12-03T03:00:49.308Z,97557.63
2022-12-03T03:05:51.674Z,97560.34
2022-12-03T03:10:56.137Z,97553.00
2022-12-03T03:15:58.738Z,97550.75
2022-12-03T03:21:01.366Z,97546.97
2022-12-03T03:26:07.086Z,97558.47
2022-12-03T03:31:12.591Z,97564.00
2022-12-03T03:36:15.354Z,97560.53
2022-12-03T03:41:20.700Z,97562.47
2022-12-03T03:46:23.043Z,97556.16
2022-12-03T03:51:25.436Z,97541.44
2022-12-03T03:56:28.901Z,97547.41
2022-12-03T04:01:31.270Z,97540.44
2022-12-03T04:06:33.193Z,97555.09
2022-12-03T04:11:55.165Z,97551.91
2022-12-03T04:16:57.102Z,97553.06
2022-12-03T04:22:17.908Z,97551.81
2022-12-03T04:27:59.699Z,97557.22
2022-12-03T04:33:20.329Z,97547.94
2022-12-03T04:38:37.322Z,97551.63
2022-12-03T04:44:00.546Z,97547.63
2022-12-03T04:49:02.331Z,97550.28
2022-12-03T04:54:04.357Z,97550.56
2022-12-03T04:59:12.715Z,97543.88
2022-12-03T05:04:17.843Z,97550.25
2022-12-03T05:09:19.783Z,97555.97
2022-12-03T05:14:23.197Z,97562.56
2022-12-03T05:19:45.071Z,97563.75
2022-12-03T05:24:46.987Z,97566.41
2022-12-03T05:29:50.215Z,97557.81
2022-12-03T05:34:52.641Z,97565.50
2022-12-03T05:39:54.853Z,97558.63
2022-12-03T05:44:58.092Z,97551.72
2022-12-03T05:50:00.002Z,97545.63
2022-12-03T05:55:02.141Z,97539.31
2022-12-03T06:00:11.323Z,97546.66
2022-12-03T06:05:15.354Z,97538.88
2022-12-03T06:10:20.618Z,97541.22
2022-12-03T06:15:23.960Z,97538.00
2022-12-03T06:20:26.028Z,97534.88
2022-12-03T06:25:27.935Z,97537.56
2022-12-03T06:30:31.214Z,97551.94
2022-12-03T06:35:33.186Z,97564.19
2022-12-03T06:40:35.122Z,97573.31
2022-12-03T06:45:42.034Z,97574.41
2022-12-03T06:50:46.489Z,97589.94
2022-12-03T06:55:48.401Z,97577.78
2022-12-03T07:00:51.712Z,97580.19
2022-12-03T07:05:53.621Z,97573.59
2022-12-03T07:10:55.596Z,97569.69
2022-12-03T07:15:58.876Z,97567.28
2022-12-03T07:21:00.836Z,97565.97
2022-12-03T07:26:02.770Z,97555.22
2022-12-03T07:31:06.215Z,97558.03
2022-12-03T07:36:09.141Z,97560.50
2022-12-03T07:41:11.104Z,97559.94
2022-12-03T07:46:14.439Z,97567.63
2022-12-03T07:51:16.494Z,97565.09
2022-12-03T07:56:18.446Z,97570.88
2022-12-03T08:01:21.765Z,97565.16
2022-12-03T08:06:23.762Z,97563.84
2022-12-03T08:11:29.023Z,97561.81
2022-12-03T08:16:40.341Z,97561.16
2022-12-03T08:21:43.443Z,97557.38
2022-12-03T08:26:47.178Z,97566.09
2022-12-03T08:31:54.756Z,97556.59
2022-12-03T08:37:19.309Z,97569.53
2022-12-03T08:42:43.102Z,97570.34
2022-12-03T08:47:46.692Z,97574.25
2022-12-03T08:52:48.921Z,97568.84
2022-12-03T08:57:51.139Z,97578.19
2022-12-03T09:02:59.511Z,97578.94
2022-12-03T09:08:01.698Z,97586.72
2022-12-03T09:13:03.753Z,97582.47
2022-12-03T09:18:08.049Z,97574.69
2022-12-03T09:23:10.032Z,97570.00
2022-12-03T09:28:11.965Z,97575.03
2022-12-03T09:33:15.237Z,97568.78
2022-12-03T09:38:17.188Z,97581.19
2022-12-03T09:43:19.777Z,97569.91
2022-12-03T09:48:23.279Z,97584.22
2022-12-03T09:53:27.311Z,97576.47
2022-12-03T09:58:34.504Z,97566.25
2022-12-03T10:03:43.085Z,97553.06
2022-12-03T10:08:48.512Z,97542.84
2022-12-03T10:13:51.164Z,97541.13
2022-12-03T10:18:57.082Z,97532.25
2022-12-03T10:24:22.687Z,97528.94
2022-12-03T10:29:32.946Z,97534.72
2022-12-03T10:34:39.608Z,97541.66
2022-12-03T10:39:59.756Z,97550.84
2022-12-03T10:45:12.883Z,97541.47
2022-12-03T10:50:20.148Z,97533.56
2022-12-03T10:55:22.221Z,97542.06
2022-12-03T11:00:24.344Z,97530.59
2022-12-03T11:05:28.603Z,97523.84
2022-12-03T11:10:30.885Z,97519.31
2022-12-03T11:15:43.882Z,97520.06
2022-12-03T11:21:09.320Z,97524.50
2022-12-03T11:26:17.101Z,97529.25
2022-12-03T11:31:43.415Z,97517.56
2022-12-03T11:37:18.981Z,97522.38
2022-12-03T11:42:38.602Z,97525.16
2022-12-03T11:47:44.040Z,97515.09
2022-12-03T11:52:48.760Z,97519.34
2022-12-03T11:57:57.385Z,97520.47
2022-12-03T12:02:59.643Z,97516.66
2022-12-03T12:08:02.848Z,97516.78
2022-12-03T12:13:06.960Z,97520.31
2022-12-03T12:18:40.079Z,97519.34
2022-12-03T12:23:42.510Z,97511.03
2022-12-03T12:28:46.063Z,97506.88
2022-12-03T12:33:48.234Z,97507.09
2022-12-03T12:38:50.337Z,97503.06
2022-12-03T12:43:53.838Z,97498.03
2022-12-03T12:48:59.674Z,97494.28
2022-12-03T12:54:02.196Z,97491.81
2022-12-03T12:59:11.582Z,97482.88
2022-12-03T13:04:15.681Z,97473.34
2022-12-03T13:09:21.131Z,97486.63
2022-12-03T13:14:26.144Z,97481.91
2022-12-03T13:19:30.239Z,97473.31
2022-12-03T13:24:35.841Z,97481.66
2022-12-03T13:29:39.590Z,97482.16
2022-12-03T13:34:42.713Z,97486.13
2022-12-03T13:39:49.654Z,97478.50
2022-12-03T13:44:53.789Z,97491.03
2022-12-03T13:49:59.865Z,97484.75
2022-12-03T13:55:07.033Z,97478.59
2022-12-03T14:00:11.693Z,97471.59
2022-12-03T14:05:15.356Z,97481.00
2022-12-03T14:10:17.582Z,97469.34
2022-12-03T14:15:26.373Z,97475.19
2022-12-03T14:20:28.313Z,97467.03
2022-12-03T14:25:30.234Z,97486.84
2022-12-03T14:30:34.905Z,97476.41
2022-12-03T14:35:39.963Z,97481.06
2022-12-03T14:40:43.679Z,97480.69
2022-12-03T14:45:47.017Z,97488.81
2022-12-03T14:50:49.014Z,97488.09
2022-12-03T14:55:55.908Z,97495.84
2022-12-03T15:00:59.234Z,97493.50
2022-12-03T15:06:01.167Z,97487.63
2022-12-03T15:11:03.548Z,97504.41
2022-12-03T15:16:07.610Z,97502.06
2022-12-03T15:21:11.942Z,97503.66
2022-12-03T15:26:13.927Z,97499.00
2022-12-03T15:31:17.286Z,97493.91
2022-12-03T15:36:22.117Z,97495.06
2022-12-03T15:41:28.951Z,97494.31
2022-12-03T15:46:32.472Z,97484.25
2022-12-03T16:02:15.311Z,97467.53
2022-12-03T16:07:17.936Z,97466.34
2022-12-03T16:12:22.917Z,97455.38
2022-12-03T16:17:36.885Z,97464.63
2022-12-03T16:23:03.269Z,97463.13
2022-12-03T16:28:24.632Z,97455.31
2022-12-03T16:33:28.267Z,97453.84
2022-12-03T16:38:56.665Z,97451.50
2022-12-03T16:44:07.297Z,97444.41
2022-12-03T16:49:13.701Z,97444.09
2022-12-03T16:54:16.074Z,97447.91
2022-12-03T16:59:18.167Z,97437.00
2022-12-03T17:04:21.623Z,97452.94
2022-12-03T17:09:23.662Z,97462.31
2022-12-03T17:14:31.453Z,97448.59
2022-12-03T17:19:36.545Z,97448.31
2022-12-03T17:24:38.647Z,97443.66
2022-12-03T17:29:40.667Z,97437.72
2022-12-03T17:34:44.043Z,97431.94
2022-12-03T17:39:46.026Z,97438.19
2022-12-03T17:44:48.000Z,97436.75
2022-12-03T17:49:51.511Z,97428.03
2022-12-03T17:55:12.814Z,97421.38
2022-12-03T18:00:16.069Z,97419.94
2022-12-03T18:05:19.597Z,97411.53
2022-12-03T18:10:22.583Z,97417.13
2022-12-03T18:15:24.520Z,97411.47
2022-12-03T18:20:28.007Z,97419.66
2022-12-03T18:25:30.743Z,97412.75
2022-12-03T18:30:32.734Z,97423.28
2022-12-03T18:35:36.178Z,97406.97
2022-12-03T18:40:38.530Z,97413.56
2022-12-03T18:45:41.019Z,97424.47
2022-12-03T18:50:44.960Z,97417.41
2022-12-03T18:55:47.202Z,97432.59
2022-12-03T19:00:49.178Z,97429.94
2022-12-03T19:05:52.753Z,97432.28
2022-12-03T19:10:56.727Z,97437.69
2022-12-03T19:16:01.828Z,97440.78
2022-12-03T19:21:07.988Z,97433.03
2022-12-03T19:26:12.323Z,97440.00
2022-12-03T19:31:16.636Z,97434.94
2022-12-03T19:36:23.060Z,97440.03
2022-12-03T19:41:27.414Z,97438.09
2022-12-03T19:46:30.279Z,97435.38
2022-12-03T19:51:35.360Z,97428.38
2022-12-03T19:56:37.518Z,97431.47
2022-12-03T20:01:40.808Z,97432.28
2022-12-03T20:06:45.346Z,97429.88
2022-12-03T20:11:51.153Z,97430.69
2022-12-03T20:16:53.203Z,97440.34
2022-12-03T20:22:02.353Z,97421.28
2022-12-03T20:27:04.904Z,97432.59
2022-12-03T20:32:07.119Z,97434.56
2022-12-03T20:37:10.522Z,97430.69
2022-12-03T20:42:12.432Z,97437.66
2022-12-03T20:47:15.333Z,97449.31
2022-12-03T20:52:18.613Z,97443.13
2022-12-03T20:57:20.576Z,97450.88
2022-12-03T21:02:22.655Z,97438.88
2022-12-03T21:07:26.246Z,97439.63
2022-12-03T21:12:30.901Z,97441.19
2022-12-03T21:17:33.517Z,97432.66
2022-12-03T21:22:36.980Z,97429.13
2022-12-03T21:27:38.927Z,97436.88
2022-12-03T21:32:40.878Z,97428.38
2022-12-03T21:37:44.215Z,97426.03
2022-12-03T21:42:46.382Z,97425.63
2022-12-03T21:47:48.513Z,97423.31
2022-12-03T21:52:52.704Z,97422.13
2022-12-03T21:57:54.660Z,97423.66
2022-12-03T22:02:56.656Z,97420.56
2022-12-03T22:08:00.005Z,97422.91
2022-12-03T22:13:02.259Z,97429.91
2022-12-03T22:18:04.766Z,97419.78
2022-12-03T22:23:08.127Z,97426.38
2022-12-03T22:28:10.039Z,97425.16
2022-12-03T22:33:12.001Z,97414.31
2022-12-03T22:38:15.285Z,97422.53
2022-12-03T22:43:17.363Z,97417.00
2022-12-03T22:48:19.270Z,97419.72
2022-12-03T22:53:22.556Z,97415.94
2022-12-03T22:58:25.337Z,97414.78
2022-12-03T23:03:27.293Z,97420.56
2022-12-03T23:08:30.630Z,97415.94
2022-12-03T23:13:32.647Z,97408.00
2022-12-03T23:18:34.643Z,97388.75
2022-12-03T23:23:38.069Z,97404.25
2022-12-03T23:28:41.907Z,97403.44
2022-12-03T23:33:43.990Z,97387.56
2022-12-03T23:38:47.360Z,97390.66
2022-12-03T23:43:49.596Z,97384.38
2022-12-03T23:48:52.032Z,97378.16
2022-12-03T23:53:56.429Z,97379.09
2022-12-03T23:58:58.815Z,97386.63
